sensor_id;sensor_type;location;lat;lon;timestamp;temperature;humidity
74359;DHT22;62792;46.236;6.040;2023-01-19T00:02:35;21.50;39.00
74359;DHT22;62792;46.236;6.040;2023-01-19T00:07:38;21.50;38.90
74359;DHT22;62792;46.236;6.040;2023-01-19T00:12:43;21.40;39.00
74359;DHT22;62792;46.236;6.040;2023-01-19T00:17:46;21.50;38.90
74359;DHT22;62792;46.236;6.040;2023-01-19T00:22:49;21.50;38.90
74359;DHT22;62792;46.236;6.040;2023-01-19T00:27:53;21.40;38.90
74359;DHT22;62792;46.236;6.040;2023-01-19T00:32:57;21.50;39.00
74359;DHT22;62792;46.236;6.040;2023-01-19T00:38:01;21.50;38.90
74359;DHT22;62792;46.236;6.040;2023-01-19T00:43:05;21.40;39.00
74359;DHT22;62792;46.236;6.040;2023-01-19T00:48:08;21.50;38.80
74359;DHT22;62792;46.236;6.040;2023-01-19T00:53:11;21.50;38.80
74359;DHT22;62792;46.236;6.040;2023-01-19T00:58:15;21.40;38.80
74359;DHT22;62792;46.236;6.040;2023-01-19T01:03:18;21.40;38.80
74359;DHT22;62792;46.236;6.040;2023-01-19T01:08:21;21.30;38.60
74359;DHT22;62792;46.236;6.040;2023-01-19T01:13:26;21.50;38.90
74359;DHT22;62792;46.236;6.040;2023-01-19T01:18:29;21.50;39.00
74359;DHT22;62792;46.236;6.040;2023-01-19T01:23:32;21.50;38.70
74359;DHT22;62792;46.236;6.040;2023-01-19T01:28:37;21.50;38.70
74359;DHT22;62792;46.236;6.040;2023-01-19T01:33:40;21.40;38.60
74359;DHT22;62792;46.236;6.040;2023-01-19T01:38:42;21.50;38.70
74359;DHT22;62792;46.236;6.040;2023-01-19T01:43:47;21.40;38.60
74359;DHT22;62792;46.236;6.040;2023-01-19T01:48:52;21.40;38.60
74359;DHT22;62792;46.236;6.040;2023-01-19T01:53:59;21.40;38.60
74359;DHT22;62792;46.236;6.040;2023-01-19T01:59:07;21.50;38.70
74359;DHT22;62792;46.236;6.040;2023-01-19T02:04:12;21.40;38.70
74359;DHT22;62792;46.236;6.040;2023-01-19T02:09:15;21.40;38.60
74359;DHT22;62792;46.236;6.040;2023-01-19T02:14:37;21.30;38.60
74359;DHT22;62792;46.236;6.040;2023-01-19T02:19:40;21.40;38.60
74359;DHT22;62792;46.236;6.040;2023-01-19T02:24:46;21.40;38.70
74359;DHT22;62792;46.236;6.040;2023-01-19T02:29:51;21.40;38.60
74359;DHT22;62792;46.236;6.040;2023-01-19T02:34:54;21.40;38.50
74359;DHT22;62792;46.236;6.040;2023-01-19T02:39:59;21.40;38.50
74359;DHT22;62792;46.236;6.040;2023-01-19T02:45:04;21.40;38.30
74359;DHT22;62792;46.236;6.040;2023-01-19T02:55:43;21.40;38.30
74359;DHT22;62792;46.236;6.040;2023-01-19T03:00:52;21.40;38.40
74359;DHT22;62792;46.236;6.040;2023-01-19T03:06:01;21.40;38.30
74359;DHT22;62792;46.236;6.040;2023-01-19T03:11:08;21.30;38.40
74359;DHT22;62792;46.236;6.040;2023-01-19T03:16:14;21.30;38.60
74359;DHT22;62792;46.236;6.040;2023-01-19T03:21:19;21.40;38.40
74359;DHT22;62792;46.236;6.040;2023-01-19T03:26:26;21.30;38.40
74359;DHT22;62792;46.236;6.040;2023-01-19T03:31:30;21.30;38.20
74359;DHT22;62792;46.236;6.040;2023-01-19T03:36:35;21.30;38.40
74359;DHT22;62792;46.236;6.040;2023-01-19T03:41:40;21.30;38.20
74359;DHT22;62792;46.236;6.040;2023-01-19T03:46:44;21.30;38.20
74359;DHT22;62792;46.236;6.040;2023-01-19T03:51:48;21.40;38.30
74359;DHT22;62792;46.236;6.040;2023-01-19T03:56:53;21.40;38.20
74359;DHT22;62792;46.236;6.040;2023-01-19T04:01:56;21.40;38.10
74359;DHT22;62792;46.236;6.040;2023-01-19T04:07:00;21.40;38.30
74359;DHT22;62792;46.236;6.040;2023-01-19T04:12:04;21.30;38.10
74359;DHT22;62792;46.236;6.040;2023-01-19T04:17:07;21.30;38.20
74359;DHT22;62792;46.236;6.040;2023-01-19T04:22:10;21.30;38.10
74359;DHT22;62792;46.236;6.040;2023-01-19T04:27:15;21.30;38.20
74359;DHT22;62792;46.236;6.040;2023-01-19T04:32:18;21.30;38.00
74359;DHT22;62792;46.236;6.040;2023-01-19T04:37:21;21.30;38.20
74359;DHT22;62792;46.236;6.040;2023-01-19T04:42:25;21.30;38.10
74359;DHT22;62792;46.236;6.040;2023-01-19T04:47:28;21.40;38.00
74359;DHT22;62792;46.236;6.040;2023-01-19T04:52:32;21.40;37.90
74359;DHT22;62792;46.236;6.040;2023-01-19T04:57:37;21.30;38.00
74359;DHT22;62792;46.236;6.040;2023-01-19T05:02:40;21.20;37.90
74359;DHT22;62792;46.236;6.040;2023-01-19T05:07:44;21.30;38.00
74359;DHT22;62792;46.236;6.040;2023-01-19T05:12:48;21.30;37.00
74359;DHT22;62792;46.236;6.040;2023-01-19T05:17:51;21.30;36.90
74359;DHT22;62792;46.236;6.040;2023-01-19T05:22:54;21.30;36.90
74359;DHT22;62792;46.236;6.040;2023-01-19T05:27:58;21.30;36.90
74359;DHT22;62792;46.236;6.040;2023-01-19T05:33:02;21.40;36.90
74359;DHT22;62792;46.236;6.040;2023-01-19T05:38:05;21.40;36.90
74359;DHT22;62792;46.236;6.040;2023-01-19T05:43:09;21.40;37.00
74359;DHT22;62792;46.236;6.040;2023-01-19T05:48:12;21.40;37.10
74359;DHT22;62792;46.236;6.040;2023-01-19T05:53:15;21.50;36.90
74359;DHT22;62792;46.236;6.040;2023-01-19T05:58:19;21.40;36.90
74359;DHT22;62792;46.236;6.040;2023-01-19T06:03:22;21.40;36.90
74359;DHT22;62792;46.236;6.040;2023-01-19T06:08:25;21.50;36.90
74359;DHT22;62792;46.236;6.040;2023-01-19T06:13:29;21.50;37.20
74359;DHT22;62792;46.236;6.040;2023-01-19T06:18:32;21.50;37.00
74359;DHT22;62792;46.236;6.040;2023-01-19T06:23:35;21.30;37.00
74359;DHT22;62792;46.236;6.040;2023-01-19T06:28:39;21.40;37.10
74359;DHT22;62792;46.236;6.040;2023-01-19T06:33:42;21.40;37.00
74359;DHT22;62792;46.236;6.040;2023-01-19T06:38:45;21.40;37.10
74359;DHT22;62792;46.236;6.040;2023-01-19T06:43:49;21.30;37.10
74359;DHT22;62792;46.236;6.040;2023-01-19T06:48:52;21.40;37.10
74359;DHT22;62792;46.236;6.040;2023-01-19T06:53:55;21.30;37.30
74359;DHT22;62792;46.236;6.040;2023-01-19T06:59:00;21.30;37.10
74359;DHT22;62792;46.236;6.040;2023-01-19T07:04:03;21.30;37.10
74359;DHT22;62792;46.236;6.040;2023-01-19T07:09:06;21.40;37.10
74359;DHT22;62792;46.236;6.040;2023-01-19T07:14:13;21.30;37.00
74359;DHT22;62792;46.236;6.040;2023-01-19T07:19:17;21.40;37.20
74359;DHT22;62792;46.236;6.040;2023-01-19T07:24:20;21.20;37.00
74359;DHT22;62792;46.236;6.040;2023-01-19T07:29:24;21.30;36.80
74359;DHT22;62792;46.236;6.040;2023-01-19T07:34:27;21.30;37.30
74359;DHT22;62792;46.236;6.040;2023-01-19T07:39:30;21.30;37.00
74359;DHT22;62792;46.236;6.040;2023-01-19T07:44:34;21.20;36.70
74359;DHT22;62792;46.236;6.040;2023-01-19T07:49:37;21.20;36.60
74359;DHT22;62792;46.236;6.040;2023-01-19T07:54:40;21.20;36.60
74359;DHT22;62792;46.236;6.040;2023-01-19T07:59:44;21.10;36.80
74359;DHT22;62792;46.236;6.040;2023-01-19T08:04:47;21.40;38.70
74359;DHT22;62792;46.236;6.040;2023-01-19T08:09:50;21.50;38.40
74359;DHT22;62792;46.236;6.040;2023-01-19T08:14:54;21.50;37.80
74359;DHT22;62792;46.236;6.040;2023-01-19T08:19:58;21.60;37.80
74359;DHT22;62792;46.236;6.040;2023-01-19T08:25:01;21.70;37.30
74359;DHT22;62792;46.236;6.040;2023-01-19T08:30:07;21.70;37.20
74359;DHT22;62792;46.236;6.040;2023-01-19T08:35:11;21.60;37.40
74359;DHT22;62792;46.236;6.040;2023-01-19T08:40:14;21.60;37.40
74359;DHT22;62792;46.236;6.040;2023-01-19T08:45:20;21.60;37.10
74359;DHT22;62792;46.236;6.040;2023-01-19T08:50:24;21.70;37.20
74359;DHT22;62792;46.236;6.040;2023-01-19T08:55:27;21.70;37.20
74359;DHT22;62792;46.236;6.040;2023-01-19T09:00:32;21.70;36.60
74359;DHT22;62792;46.236;6.040;2023-01-19T09:05:36;21.80;36.50
74359;DHT22;62792;46.236;6.040;2023-01-19T09:10:43;21.70;36.90
74359;DHT22;62792;46.236;6.040;2023-01-19T09:15:48;21.70;37.00
74359;DHT22;62792;46.236;6.040;2023-01-19T09:20:51;21.80;37.00
74359;DHT22;62792;46.236;6.040;2023-01-19T09:25:56;21.90;37.10
74359;DHT22;62792;46.236;6.040;2023-01-19T09:31:04;21.90;37.40
74359;DHT22;62792;46.236;6.040;2023-01-19T09:36:08;21.90;37.40
74359;DHT22;62792;46.236;6.040;2023-01-19T09:41:12;22.00;37.10
74359;DHT22;62792;46.236;6.040;2023-01-19T09:46:21;21.90;36.90
74359;DHT22;62792;46.236;6.040;2023-01-19T09:51:26;22.00;36.80
74359;DHT22;62792;46.236;6.040;2023-01-19T09:56:30;21.90;37.10
74359;DHT22;62792;46.236;6.040;2023-01-19T10:01:36;21.90;36.70
74359;DHT22;62792;46.236;6.040;2023-01-19T10:06:45;22.10;36.70
74359;DHT22;62792;46.236;6.040;2023-01-19T10:11:50;22.20;36.70
74359;DHT22;62792;46.236;6.040;2023-01-19T10:17:00;22.10;36.90
74359;DHT22;62792;46.236;6.040;2023-01-19T10:22:11;22.10;36.60
74359;DHT22;62792;46.236;6.040;2023-01-19T10:27:21;22.30;36.90
74359;DHT22;62792;46.236;6.040;2023-01-19T10:32:28;22.30;37.00
74359;DHT22;62792;46.236;6.040;2023-01-19T10:37:33;22.30;36.60
74359;DHT22;62792;46.236;6.040;2023-01-19T10:42:39;22.40;37.20
74359;DHT22;62792;46.236;6.040;2023-01-19T10:47:44;22.50;37.00
74359;DHT22;62792;46.236;6.040;2023-01-19T10:52:48;22.50;36.70
74359;DHT22;62792;46.236;6.040;2023-01-19T10:57:52;22.50;36.60
74359;DHT22;62792;46.236;6.040;2023-01-19T11:02:56;22.50;36.60
74359;DHT22;62792;46.236;6.040;2023-01-19T11:08:00;22.40;36.60
74359;DHT22;62792;46.236;6.040;2023-01-19T11:13:03;22.40;36.50
74359;DHT22;62792;46.236;6.040;2023-01-19T11:18:21;22.30;36.90
74359;DHT22;62792;46.236;6.040;2023-01-19T11:23:25;22.20;36.60
74359;DHT22;62792;46.236;6.040;2023-01-19T11:28:30;22.30;36.90
74359;DHT22;62792;46.236;6.040;2023-01-19T11:33:40;22.30;37.20
74359;DHT22;62792;46.236;6.040;2023-01-19T11:38:44;22.40;37.30
74359;DHT22;62792;46.236;6.040;2023-01-19T11:43:50;22.40;36.50
74359;DHT22;62792;46.236;6.040;2023-01-19T11:48:58;22.40;36.90
74359;DHT22;62792;46.236;6.040;2023-01-19T11:54:14;22.50;36.40
74359;DHT22;62792;46.236;6.040;2023-01-19T11:59:21;22.50;37.10
74359;DHT22;62792;46.236;6.040;2023-01-19T12:04:28;22.60;36.80
74359;DHT22;62792;46.236;6.040;2023-01-19T12:09:33;22.80;36.60
74359;DHT22;62792;46.236;6.040;2023-01-19T12:14:38;22.70;37.00
74359;DHT22;62792;46.236;6.040;2023-01-19T12:19:45;22.70;36.70
74359;DHT22;62792;46.236;6.040;2023-01-19T12:24:56;22.70;36.60
74359;DHT22;62792;46.236;6.040;2023-01-19T12:30:02;22.60;37.40
74359;DHT22;62792;46.236;6.040;2023-01-19T12:35:09;22.60;36.30
74359;DHT22;62792;46.236;6.040;2023-01-19T12:40:49;22.60;36.50
74359;DHT22;62792;46.236;6.040;2023-01-19T12:46:23;22.60;36.40
74359;DHT22;62792;46.236;6.040;2023-01-19T12:51:31;22.60;36.60
74359;DHT22;62792;46.236;6.040;2023-01-19T12:56:35;22.60;36.90
74359;DHT22;62792;46.236;6.040;2023-01-19T13:01:39;22.60;36.90
74359;DHT22;62792;46.236;6.040;2023-01-19T13:12:21;22.60;36.60
74359;DHT22;62792;46.236;6.040;2023-01-19T13:17:26;22.70;36.70
74359;DHT22;62792;46.236;6.040;2023-01-19T13:28:25;22.60;36.50
74359;DHT22;62792;46.236;6.040;2023-01-19T13:33:36;22.60;36.40
74359;DHT22;62792;46.236;6.040;2023-01-19T13:38:41;22.50;36.40
74359;DHT22;62792;46.236;6.040;2023-01-19T13:43:46;22.60;36.90
74359;DHT22;62792;46.236;6.040;2023-01-19T13:48:51;22.60;36.80
74359;DHT22;62792;46.236;6.040;2023-01-19T13:53:56;22.70;37.00
74359;DHT22;62792;46.236;6.040;2023-01-19T13:59:02;22.70;36.90
74359;DHT22;62792;46.236;6.040;2023-01-19T14:04:27;22.80;36.70
74359;DHT22;62792;46.236;6.040;2023-01-19T14:09:31;22.80;36.60
74359;DHT22;62792;46.236;6.040;2023-01-19T14:14:35;22.90;36.50
74359;DHT22;62792;46.236;6.040;2023-01-19T14:19:47;22.80;36.90
74359;DHT22;62792;46.236;6.040;2023-01-19T14:24:51;23.10;36.60
74359;DHT22;62792;46.236;6.040;2023-01-19T14:29:55;23.20;36.60
74359;DHT22;62792;46.236;6.040;2023-01-19T14:35:21;23.20;36.20
74359;DHT22;62792;46.236;6.040;2023-01-19T14:40:25;23.20;36.10
74359;DHT22;62792;46.236;6.040;2023-01-19T14:45:31;23.40;36.20
74359;DHT22;62792;46.236;6.040;2023-01-19T14:50:36;23.50;36.00
74359;DHT22;62792;46.236;6.040;2023-01-19T14:55:43;23.30;36.00
74359;DHT22;62792;46.236;6.040;2023-01-19T15:00:49;23.20;36.40
74359;DHT22;62792;46.236;6.040;2023-01-19T15:05:56;23.20;35.80
74359;DHT22;62792;46.236;6.040;2023-01-19T15:11:00;23.60;35.00
74359;DHT22;62792;46.236;6.040;2023-01-19T15:16:09;23.40;35.40
74359;DHT22;62792;46.236;6.040;2023-01-19T15:21:13;23.20;35.40
74359;DHT22;62792;46.236;6.040;2023-01-19T15:26:17;23.30;35.10
74359;DHT22;62792;46.236;6.040;2023-01-19T15:31:22;23.20;35.10
74359;DHT22;62792;46.236;6.040;2023-01-19T15:36:27;23.00;35.10
74359;DHT22;62792;46.236;6.040;2023-01-19T15:41:30;22.90;35.60
74359;DHT22;62792;46.236;6.040;2023-01-19T15:46:34;23.10;35.50
74359;DHT22;62792;46.236;6.040;2023-01-19T15:51:37;23.20;35.50
74359;DHT22;62792;46.236;6.040;2023-01-19T15:56:40;23.30;35.50
74359;DHT22;62792;46.236;6.040;2023-01-19T16:01:44;23.10;35.60
74359;DHT22;62792;46.236;6.040;2023-01-19T16:06:47;22.90;35.60
74359;DHT22;62792;46.236;6.040;2023-01-19T16:11:53;23.00;35.60
74359;DHT22;62792;46.236;6.040;2023-01-19T16:16:58;23.00;35.60
74359;DHT22;62792;46.236;6.040;2023-01-19T16:22:02;22.90;35.90
74359;DHT22;62792;46.236;6.040;2023-01-19T16:27:06;23.00;35.50
74359;DHT22;62792;46.236;6.040;2023-01-19T16:32:10;22.90;35.50
74359;DHT22;62792;46.236;6.040;2023-01-19T16:37:13;22.90;35.30
74359;DHT22;62792;46.236;6.040;2023-01-19T16:42:16;22.80;35.50
74359;DHT22;62792;46.236;6.040;2023-01-19T16:47:20;22.60;35.60
74359;DHT22;62792;46.236;6.040;2023-01-19T16:52:23;22.50;35.70
74359;DHT22;62792;46.236;6.040;2023-01-19T16:57:26;22.40;35.80
74359;DHT22;62792;46.236;6.040;2023-01-19T17:02:31;22.30;36.00
74359;DHT22;62792;46.236;6.040;2023-01-19T17:07:34;22.20;36.00
74359;DHT22;62792;46.236;6.040;2023-01-19T17:12:37;22.20;36.00
74359;DHT22;62792;46.236;6.040;2023-01-19T17:17:41;22.20;36.00
74359;DHT22;62792;46.236;6.040;2023-01-19T17:22:44;22.10;36.10
74359;DHT22;62792;46.236;6.040;2023-01-19T17:27:47;22.00;36.10
74359;DHT22;62792;46.236;6.040;2023-01-19T17:32:51;21.90;36.30
74359;DHT22;62792;46.236;6.040;2023-01-19T17:37:54;21.90;36.30
74359;DHT22;62792;46.236;6.040;2023-01-19T17:42:57;21.80;36.40
74359;DHT22;62792;46.236;6.040;2023-01-19T17:48:01;21.70;36.40
74359;DHT22;62792;46.236;6.040;2023-01-19T17:53:05;21.70;36.40
74359;DHT22;62792;46.236;6.040;2023-01-19T17:58:07;21.70;36.40
74359;DHT22;62792;46.236;6.040;2023-01-19T18:03:12;21.60;36.40
74359;DHT22;62792;46.236;6.040;2023-01-19T18:08:16;21.60;36.30
74359;DHT22;62792;46.236;6.040;2023-01-19T18:13:18;21.60;36.50
74359;DHT22;62792;46.236;6.040;2023-01-19T18:18:22;21.60;36.50
74359;DHT22;62792;46.236;6.040;2023-01-19T18:23:25;21.50;36.40
74359;DHT22;62792;46.236;6.040;2023-01-19T18:28:29;21.40;36.60
74359;DHT22;62792;46.236;6.040;2023-01-19T18:33:34;21.40;36.60
74359;DHT22;62792;46.236;6.040;2023-01-19T18:38:37;21.40;36.90
74359;DHT22;62792;46.236;6.040;2023-01-19T18:43:41;21.30;36.60
74359;DHT22;62792;46.236;6.040;2023-01-19T18:48:45;21.30;36.70
74359;DHT22;62792;46.236;6.040;2023-01-19T18:53:48;21.30;36.80
74359;DHT22;62792;46.236;6.040;2023-01-19T18:58:51;21.30;36.70
74359;DHT22;62792;46.236;6.040;2023-01-19T19:03:55;21.30;36.80
74359;DHT22;62792;46.236;6.040;2023-01-19T19:08:58;21.20;36.80
74359;DHT22;62792;46.236;6.040;2023-01-19T19:14:01;21.10;37.00
74359;DHT22;62792;46.236;6.040;2023-01-19T19:19:05;21.20;36.80
74359;DHT22;62792;46.236;6.040;2023-01-19T19:24:09;21.10;36.80
74359;DHT22;62792;46.236;6.040;2023-01-19T19:29:13;21.10;36.80
74359;DHT22;62792;46.236;6.040;2023-01-19T19:34:17;21.00;37.00
74359;DHT22;62792;46.236;6.040;2023-01-19T19:39:20;21.10;36.80
74359;DHT22;62792;46.236;6.040;2023-01-19T19:44:23;21.00;37.00
74359;DHT22;62792;46.236;6.040;2023-01-19T19:49:28;21.00;36.90
74359;DHT22;62792;46.236;6.040;2023-01-19T19:54:32;21.10;37.00
74359;DHT22;62792;46.236;6.040;2023-01-19T19:59:34;21.00;36.90
74359;DHT22;62792;46.236;6.040;2023-01-19T20:04:40;20.90;37.00
74359;DHT22;62792;46.236;6.040;2023-01-19T20:09:43;21.00;36.90
74359;DHT22;62792;46.236;6.040;2023-01-19T20:14:46;21.00;36.90
74359;DHT22;62792;46.236;6.040;2023-01-19T20:19:50;20.80;37.50
74359;DHT22;62792;46.236;6.040;2023-01-19T20:24:54;20.90;37.30
74359;DHT22;62792;46.236;6.040;2023-01-19T20:29:57;20.80;37.30
74359;DHT22;62792;46.236;6.040;2023-01-19T20:35:02;20.80;37.30
74359;DHT22;62792;46.236;6.040;2023-01-19T20:40:05;20.90;37.40
74359;DHT22;62792;46.236;6.040;2023-01-19T20:45:09;20.80;37.40
74359;DHT22;62792;46.236;6.040;2023-01-19T20:50:13;20.80;37.30
74359;DHT22;62792;46.236;6.040;2023-01-19T20:55:17;20.80;37.50
74359;DHT22;62792;46.236;6.040;2023-01-19T21:00:20;20.80;37.40
74359;DHT22;62792;46.236;6.040;2023-01-19T21:05:24;20.90;37.30
74359;DHT22;62792;46.236;6.040;2023-01-19T21:10:27;20.90;36.90
74359;DHT22;62792;46.236;6.040;2023-01-19T21:15:30;20.90;37.30
74359;DHT22;62792;46.236;6.040;2023-01-19T21:20:34;20.80;37.60
74359;DHT22;62792;46.236;6.040;2023-01-19T21:25:38;20.80;37.50
74359;DHT22;62792;46.236;6.040;2023-01-19T21:30:43;20.80;37.40
74359;DHT22;62792;46.236;6.040;2023-01-19T21:35:51;20.80;37.50
74359;DHT22;62792;46.236;6.040;2023-01-19T21:40:55;20.80;37.70
74359;DHT22;62792;46.236;6.040;2023-01-19T21:46:06;20.80;37.50
74359;DHT22;62792;46.236;6.040;2023-01-19T21:51:11;20.80;37.60
74359;DHT22;62792;46.236;6.040;2023-01-19T21:56:14;20.80;37.50
74359;DHT22;62792;46.236;6.040;2023-01-19T22:01:23;20.70;37.50
74359;DHT22;62792;46.236;6.040;2023-01-19T22:06:34;20.80;37.50
74359;DHT22;62792;46.236;6.040;2023-01-19T22:11:37;20.70;37.60
74359;DHT22;62792;46.236;6.040;2023-01-19T22:16:40;20.70;37.60
74359;DHT22;62792;46.236;6.040;2023-01-19T22:21:44;20.70;37.70
74359;DHT22;62792;46.236;6.040;2023-01-19T22:26:48;20.70;37.70
74359;DHT22;62792;46.236;6.040;2023-01-19T22:31:52;20.70;37.50
74359;DHT22;62792;46.236;6.040;2023-01-19T22:36:59;20.70;37.50
74359;DHT22;62792;46.236;6.040;2023-01-19T22:42:03;20.70;37.30
74359;DHT22;62792;46.236;6.040;2023-01-19T22:47:05;20.80;37.40
74359;DHT22;62792;46.236;6.040;2023-01-19T22:52:10;20.80;37.40
74359;DHT22;62792;46.236;6.040;2023-01-19T22:57:15;20.70;37.30
74359;DHT22;62792;46.236;6.040;2023-01-19T23:02:18;20.80;37.50
74359;DHT22;62792;46.236;6.040;2023-01-19T23:07:24;20.80;37.50
74359;DHT22;62792;46.236;6.040;2023-01-19T23:12:27;20.70;37.50
74359;DHT22;62792;46.236;6.040;2023-01-19T23:17:30;20.70;37.60
74359;DHT22;62792;46.236;6.040;2023-01-19T23:22:34;20.60;37.40
74359;DHT22;62792;46.236;6.040;2023-01-19T23:27:37;20.60;37.60
74359;DHT22;62792;46.236;6.040;2023-01-19T23:32:45;20.70;37.30
74359;DHT22;62792;46.236;6.040;2023-01-19T23:37:49;20.60;37.50
74359;DHT22;62792;46.236;6.040;2023-01-19T23:42:53;20.60;37.40
74359;DHT22;62792;46.236;6.040;2023-01-19T23:47:56;20.60;37.30
74359;DHT22;62792;46.236;6.040;2023-01-19T23:53:00;20.60;37.40
74359;DHT22;62792;46.236;6.040;2023-01-19T23:58:03;20.60;37.40
